Time;durP1;ratioP1;P1;durP2;ratioP2;P2;SDS_P1;SDS_P2;PMS_P1;PMS_P2;Temp;Humidity;BMP_temperature;BMP_pressure;BME280_temperature;BME280_humidity;BME280_pressure;Samples;Min_cycle;Max_cycle;Signal;HPM_P1;HPM_P2
2021/07/31 00:01:08;;;;;;;3.95;2.88;;;;;;;;;;5052588;28;20463;-42
2021/07/31 00:03:34;;;;;;;3.63;3.05;;;;;;;;;;5053120;28;20371;-42
2021/07/31 00:05:59;;;;;;;6.75;3.58;;;;;;;;;;5052660;28;20033;-42
2021/07/31 00:08:25;;;;;;;3.97;3.00;;;;;;;;;;5052525;28;20028;-42
2021/07/31 00:10:51;;;;;;;4.97;3.63;;;;;;;;;;5052610;28;20078;-41
2021/07/31 00:13:16;;;;;;;9.18;3.20;;;;;;;;;;5052458;28;20013;-42
2021/07/31 00:15:42;;;;;;;3.47;3.08;;;;;;;;;;5052787;28;20098;-42
2021/07/31 00:18:08;;;;;;;7.18;3.20;;;;;;;;;;5052794;28;20506;-42
2021/07/31 00:20:33;;;;;;;4.93;3.17;;;;;;;;;;5052367;28;20032;-42
2021/07/31 00:22:58;;;;;;;3.75;3.17;;;;;;;;;;5052878;28;20471;-42
2021/07/31 00:25:24;;;;;;;4.10;3.47;;;;;;;;;;5052607;28;20033;-41
2021/07/31 00:27:49;;;;;;;4.13;2.80;;;;;;;;;;5052692;28;20532;-42
2021/07/31 00:30:14;;;;;;;4.97;3.08;;;;;;;;;;5052340;28;20485;-42
2021/07/31 00:32:40;;;;;;;7.25;3.38;;;;;;;;;;5052326;28;20053;-41
2021/07/31 00:35:05;;;;;;;10.80;3.72;;;;;;;;;;5052158;28;20419;-42
2021/07/31 00:37:31;;;;;;;5.22;2.40;;;;;;;;;;5052684;28;20017;-42
2021/07/31 00:39:56;;;;;;;5.07;2.85;;;;;;;;;;5052148;28;20036;-42
2021/07/31 00:42:21;;;;;;;5.65;3.05;;;;;;;;;;5052413;28;20017;-42
2021/07/31 00:44:47;;;;;;;3.33;2.88;;;;;;;;;;5052442;28;20388;-42
2021/07/31 00:47:13;;;;;;;5.43;2.78;;;;;;;;;;5052331;28;20410;-42
2021/07/31 00:49:39;;;;;;;7.30;3.20;;;;;;;;;;5052394;28;20033;-42
2021/07/31 00:52:05;;;;;;;4.93;3.03;;;;;;;;;;5052113;28;20021;-42
2021/07/31 00:54:31;;;;;;;5.25;3.50;;;;;;;;;;5052203;28;20037;-41
2021/07/31 00:56:57;;;;;;;4.88;3.10;;;;;;;;;;5051901;28;20408;-42
2021/07/31 00:59:23;;;;;;;3.72;3.30;;;;;;;;;;5050751;28;20025;-42
2021/07/31 01:01:49;;;;;;;4.82;3.17;;;;;;;;;;5052073;28;20475;-42
2021/07/31 01:04:14;;;;;;;4.10;3.00;;;;;;;;;;5051870;28;20112;-42
2021/07/31 01:06:40;;;;;;;6.40;4.18;;;;;;;;;;5052048;28;20021;-42
2021/07/31 01:09:06;;;;;;;4.35;3.05;;;;;;;;;;5067372;28;20039;-42
2021/07/31 01:11:33;;;;;;;5.25;2.88;;;;;;;;;;5050652;28;20426;-42
2021/07/31 01:14:03;;;;;;;4.57;3.30;;;;;;;;;;5050742;28;20550;-42
2021/07/31 01:16:28;;;;;;;5.95;3.00;;;;;;;;;;5050456;28;20040;-42
2021/07/31 01:18:53;;;;;;;3.55;3.17;;;;;;;;;;5050679;28;20025;-42
2021/07/31 01:21:35;;;;;;;3.38;2.78;;;;;;;;;;5050456;28;20025;-42
2021/07/31 01:24:04;;;;;;;4.43;2.90;;;;;;;;;;5067303;28;20075;-41
2021/07/31 01:26:30;;;;;;;4.35;2.60;;;;;;;;;;5052099;28;20376;-42
2021/07/31 01:28:55;;;;;;;4.65;3.33;;;;;;;;;;5050618;28;20116;-42
2021/07/31 01:31:21;;;;;;;3.28;2.83;;;;;;;;;;5051665;28;20013;-44
2021/07/31 01:33:47;;;;;;;13.38;4.13;;;;;;;;;;5051971;28;20048;-42
2021/07/31 01:36:13;;;;;;;6.45;3.28;;;;;;;;;;5051960;28;20356;-42
2021/07/31 01:38:42;;;;;;;7.50;3.20;;;;;;;;;;5067053;28;20479;-42
2021/07/31 01:41:07;;;;;;;5.45;3.45;;;;;;;;;;5050318;28;20082;-42
2021/07/31 01:43:33;;;;;;;3.25;2.60;;;;;;;;;;5051842;28;20025;-42
2021/07/31 01:45:58;;;;;;;8.02;3.67;;;;;;;;;;5050299;28;20055;-42
2021/07/31 01:48:24;;;;;;;5.35;2.83;;;;;;;;;;5050326;28;20022;-42
2021/07/31 01:50:51;;;;;;;4.47;3.00;;;;;;;;;;5050272;28;20025;-43
2021/07/31 01:53:16;;;;;;;8.00;3.80;;;;;;;;;;5066732;28;20056;-42
2021/07/31 01:55:44;;;;;;;6.90;2.88;;;;;;;;;;5066999;28;20183;-42
2021/07/31 01:58:13;;;;;;;5.88;2.85;;;;;;;;;;5052323;28;20029;-43
2021/07/31 02:00:42;;;;;;;3.50;3.00;;;;;;;;;;5053787;28;20044;-42
2021/07/31 02:03:11;;;;;;;6.20;3.65;;;;;;;;;;5054949;28;20029;-42
2021/07/31 02:05:48;;;;;;;3.92;2.88;;;;;;;;;;5053794;28;20410;-42
2021/07/31 02:08:14;;;;;;;3.83;3.28;;;;;;;;;;5055081;28;20036;-42
2021/07/31 02:10:50;;;;;;;6.47;3.33;;;;;;;;;;5055236;28;20020;-42
2021/07/31 02:13:16;;;;;;;3.78;3.00;;;;;;;;;;5070178;28;20385;-42
2021/07/31 02:15:42;;;;;;;4.47;3.53;;;;;;;;;;5070143;28;20480;-42
2021/07/31 02:18:12;;;;;;;3.40;2.97;;;;;;;;;;5053511;28;20072;-43
2021/07/31 02:20:38;;;;;;;3.95;3.00;;;;;;;;;;5053304;28;20078;-42
2021/07/31 02:23:11;;;;;;;3.35;2.60;;;;;;;;;;5054959;28;20025;-43
2021/07/31 02:25:59;;;;;;;4.10;3.30;;;;;;;;;;5044416;28;20541;-43
2021/07/31 02:28:47;;;;;;;4.80;3.28;;;;;;;;;;5048884;28;20041;-43
2021/07/31 02:31:14;;;;;;;5.35;3.45;;;;;;;;;;5053200;28;20066;-42
2021/07/31 02:33:44;;;;;;;6.20;4.25;;;;;;;;;;5053154;28;20456;-42
2021/07/31 02:36:10;;;;;;;6.43;3.22;;;;;;;;;;5053023;28;20124;-42
2021/07/31 02:38:45;;;;;;;4.53;3.15;;;;;;;;;;5053110;28;20017;-42
2021/07/31 02:41:11;;;;;;;4.88;3.35;;;;;;;;;;5069637;28;20103;-42
2021/07/31 02:43:38;;;;;;;4.50;3.13;;;;;;;;;;5053086;28;20024;-42
2021/07/31 02:46:05;;;;;;;7.40;3.65;;;;;;;;;;5069579;28;20637;-43
2021/07/31 02:48:32;;;;;;;3.95;3.30;;;;;;;;;;5053065;28;20060;-43
2021/07/31 02:51:01;;;;;;;10.02;3.03;;;;;;;;;;5054246;28;20029;-42
2021/07/31 02:53:52;;;;;;;7.70;3.40;;;;;;;;;;5053917;28;20128;-42
2021/07/31 02:56:18;;;;;;;5.05;3.38;;;;;;;;;;5054228;28;20129;-42
2021/07/31 02:58:44;;;;;;;4.72;3.10;;;;;;;;;;5052803;28;20025;-42
2021/07/31 03:01:11;;;;;;;8.52;3.53;;;;;;;;;;5069180;28;20032;-43
2021/07/31 03:03:37;;;;;;;4.97;3.17;;;;;;;;;;5052659;28;20368;-42
2021/07/31 03:06:03;;;;;;;3.15;2.67;;;;;;;;;;5052650;28;20032;-43
2021/07/31 03:08:31;;;;;;;4.10;3.38;;;;;;;;;;5052507;28;20024;-42
2021/07/31 03:10:57;;;;;;;3.55;2.92;;;;;;;;;;5052562;28;20056;-43
2021/07/31 03:13:23;;;;;;;4.35;3.38;;;;;;;;;;5052343;28;20017;-42
2021/07/31 03:15:51;;;;;;;6.38;2.83;;;;;;;;;;5069111;28;20118;-43
2021/07/31 03:18:16;;;;;;;6.60;3.10;;;;;;;;;;5068957;28;20017;-43
2021/07/31 03:20:46;;;;;;;4.07;2.83;;;;;;;;;;5068870;28;20079;-43
2021/07/31 03:23:13;;;;;;;4.13;3.42;;;;;;;;;;5068957;28;20029;-42
2021/07/31 03:25:38;;;;;;;3.58;2.97;;;;;;;;;;5052215;28;20092;-42
2021/07/31 03:28:05;;;;;;;5.28;3.80;;;;;;;;;;5052317;28;20468;-43
2021/07/31 03:30:44;;;;;;;4.55;3.17;;;;;;;;;;5068715;28;20029;-42
2021/07/31 03:33:12;;;;;;;4.45;3.08;;;;;;;;;;5068545;28;20028;-42
2021/07/31 03:35:39;;;;;;;6.72;3.38;;;;;;;;;;5068664;28;20021;-42
2021/07/31 03:38:29;;;;;;;4.32;3.35;;;;;;;;;;5068605;28;20112;-43
2021/07/31 03:40:56;;;;;;;7.15;4.10;;;;;;;;;;5053090;28;20064;-43
2021/07/31 03:43:27;;;;;;;4.93;3.25;;;;;;;;;;5051911;28;20548;-42
2021/07/31 03:45:53;;;;;;;4.82;3.67;;;;;;;;;;5053359;28;20037;-42
2021/07/31 03:48:19;;;;;;;4.03;3.30;;;;;;;;;;5051832;28;20021;-43
2021/07/31 03:50:46;;;;;;;3.67;3.08;;;;;;;;;;5053321;28;20033;-43
2021/07/31 03:53:16;;;;;;;3.35;2.85;;;;;;;;;;5051465;28;20045;-42
2021/07/31 03:55:46;;;;;;;6.80;3.35;;;;;;;;;;5053176;28;20041;-42
2021/07/31 03:58:12;;;;;;;4.22;3.58;;;;;;;;;;5052773;28;20540;-42
2021/07/31 04:00:44;;;;;;;4.55;3.38;;;;;;;;;;5051539;28;20119;-42
2021/07/31 04:03:11;;;;;;;10.50;3.67;;;;;;;;;;5068105;28;20036;-42
2021/07/31 04:05:39;;;;;;;4.35;3.28;;;;;;;;;;5052802;28;20086;-43
2021/07/31 04:08:23;;;;;;;5.95;3.92;;;;;;;;;;5052659;28;20078;-43
2021/07/31 04:11:06;;;;;;;4.05;2.97;;;;;;;;;;5052714;28;20094;-42
2021/07/31 04:13:52;;;;;;;5.15;3.00;;;;;;;;;;5052744;28;20086;-42
2021/07/31 04:16:24;;;;;;;5.20;3.33;;;;;;;;;;5051077;28;20466;-42
2021/07/31 04:18:50;;;;;;;4.03;2.88;;;;;;;;;;5068079;28;20025;-42
2021/07/31 04:21:16;;;;;;;8.90;3.08;;;;;;;;;;5050787;28;20025;-43
2021/07/31 04:23:43;;;;;;;7.05;4.30;;;;;;;;;;5051162;28;20021;-43
2021/07/31 04:26:11;;;;;;;8.82;3.33;;;;;;;;;;5051101;28;20104;-42
2021/07/31 04:28:36;;;;;;;8.05;3.53;;;;;;;;;;5052456;28;20087;-42
2021/07/31 04:31:06;;;;;;;4.57;3.28;;;;;;;;;;5052397;28;20495;-42
2021/07/31 04:33:32;;;;;;;6.50;3.35;;;;;;;;;;5052182;28;20447;-42
2021/07/31 04:35:57;;;;;;;4.55;3.40;;;;;;;;;;5052341;28;20072;-42
2021/07/31 04:38:23;;;;;;;3.33;3.03;;;;;;;;;;5052212;28;20392;-43
2021/07/31 04:40:48;;;;;;;4.32;3.28;;;;;;;;;;5050959;28;20028;-43
2021/07/31 04:43:14;;;;;;;5.20;3.35;;;;;;;;;;5052426;28;20025;-43
2021/07/31 04:45:39;;;;;;;7.78;3.22;;;;;;;;;;5052278;28;20027;-42
2021/07/31 04:48:05;;;;;;;5.75;3.53;;;;;;;;;;5052380;28;20103;-43
2021/07/31 04:50:30;;;;;;;6.43;3.00;;;;;;;;;;5052017;28;20421;-42
2021/07/31 04:52:55;;;;;;;6.88;3.97;;;;;;;;;;5052113;28;20132;-43
2021/07/31 04:55:21;;;;;;;5.25;3.17;;;;;;;;;;5052279;28;20049;-42
2021/07/31 04:57:46;;;;;;;6.18;3.35;;;;;;;;;;5052200;28;20125;-42
2021/07/31 05:00:12;;;;;;;4.78;3.67;;;;;;;;;;5050674;28;20108;-42
2021/07/31 05:02:37;;;;;;;5.20;3.78;;;;;;;;;;5052071;28;20043;-43
2021/07/31 05:05:02;;;;;;;5.05;3.80;;;;;;;;;;5052362;28;20017;-42
2021/07/31 05:07:28;;;;;;;6.05;3.53;;;;;;;;;;5067303;28;20483;-42
2021/07/31 05:09:54;;;;;;;6.47;3.33;;;;;;;;;;5052028;28;20028;-43
2021/07/31 05:12:20;;;;;;;6.63;2.92;;;;;;;;;;5051803;28;20052;-43
2021/07/31 05:14:49;;;;;;;9.20;2.88;;;;;;;;;;5052096;28;20049;-43
2021/07/31 05:17:14;;;;;;;5.03;4.00;;;;;;;;;;5052187;28;20041;-42
2021/07/31 05:19:39;;;;;;;4.38;2.85;;;;;;;;;;5052089;28;20467;-43
2021/07/31 05:22:06;;;;;;;4.47;3.80;;;;;;;;;;5051977;28;20051;-42
2021/07/31 05:24:31;;;;;;;5.82;3.92;;;;;;;;;;5051815;28;20009;-43
2021/07/31 05:26:57;;;;;;;5.13;3.80;;;;;;;;;;5052093;28;20506;-43
2021/07/31 05:29:22;;;;;;;4.00;3.30;;;;;;;;;;5051801;28;20378;-42
2021/07/31 05:31:48;;;;;;;7.55;4.00;;;;;;;;;;5051810;28;20498;-42
2021/07/31 05:34:13;;;;;;;10.02;3.42;;;;;;;;;;5054451;28;20357;-43
2021/07/31 05:36:39;;;;;;;6.38;3.88;;;;;;;;;;5055436;28;20032;-42
2021/07/31 05:39:05;;;;;;;4.00;3.60;;;;;;;;;;5055628;28;20013;-43
2021/07/31 05:41:30;;;;;;;4.97;3.88;;;;;;;;;;5055425;28;20037;-42
2021/07/31 05:43:56;;;;;;;7.18;3.67;;;;;;;;;;5055714;28;20487;-42
2021/07/31 05:46:21;;;;;;;5.03;4.13;;;;;;;;;;5055688;28;20498;-42
2021/07/31 05:48:47;;;;;;;5.18;3.85;;;;;;;;;;5055333;28;20388;-42
2021/07/31 05:51:15;;;;;;;3.90;3.50;;;;;;;;;;5055177;28;20115;-43
2021/07/31 05:53:41;;;;;;;4.45;3.30;;;;;;;;;;5055198;28;20049;-43
2021/07/31 05:56:11;;;;;;;5.43;3.30;;;;;;;;;;5055367;28;20094;-42
2021/07/31 05:58:36;;;;;;;4.03;3.20;;;;;;;;;;5055489;28;20029;-43
2021/07/31 06:01:05;;;;;;;7.22;4.20;;;;;;;;;;5055057;28;20610;-42
2021/07/31 06:03:31;;;;;;;4.15;3.72;;;;;;;;;;5054992;28;20013;-42
2021/07/31 06:05:57;;;;;;;6.43;3.75;;;;;;;;;;5055009;28;20070;-42
2021/07/31 06:08:23;;;;;;;7.13;3.65;;;;;;;;;;5053973;28;20112;-42
2021/07/31 06:10:48;;;;;;;6.25;4.13;;;;;;;;;;5054920;28;20116;-43
2021/07/31 06:13:14;;;;;;;5.07;3.33;;;;;;;;;;5054766;28;20082;-43
2021/07/31 06:15:41;;;;;;;11.80;3.75;;;;;;;;;;5055049;28;20044;-43
2021/07/31 06:18:06;;;;;;;4.53;3.08;;;;;;;;;;5054882;28;20013;-43
2021/07/31 06:20:33;;;;;;;6.18;4.32;;;;;;;;;;5054560;28;20388;-43
2021/07/31 06:22:58;;;;;;;4.35;3.72;;;;;;;;;;5053436;28;20021;-42
2021/07/31 06:25:23;;;;;;;5.97;3.47;;;;;;;;;;5054925;28;20122;-43
2021/07/31 06:27:52;;;;;;;5.15;3.78;;;;;;;;;;5054654;28;20379;-42
2021/07/31 06:30:18;;;;;;;6.22;3.30;;;;;;;;;;5054520;28;20048;-43
2021/07/31 06:32:43;;;;;;;5.47;3.88;;;;;;;;;;5053192;28;20468;-43
2021/07/31 06:35:08;;;;;;;7.00;3.92;;;;;;;;;;5054450;28;20032;-42
2021/07/31 06:37:34;;;;;;;4.32;3.40;;;;;;;;;;5054652;28;20552;-43
2021/07/31 06:39:59;;;;;;;3.70;3.00;;;;;;;;;;5054606;28;20635;-42
2021/07/31 06:42:25;;;;;;;5.57;3.53;;;;;;;;;;5054365;28;20096;-43
2021/07/31 06:44:51;;;;;;;4.00;3.60;;;;;;;;;;5053922;28;20035;-43
2021/07/31 06:47:18;;;;;;;7.75;3.72;;;;;;;;;;5052925;28;20029;-43
2021/07/31 06:49:44;;;;;;;6.75;3.85;;;;;;;;;;5069632;28;20036;-42
2021/07/31 06:52:11;;;;;;;5.45;3.45;;;;;;;;;;5053911;28;20021;-43
2021/07/31 06:54:37;;;;;;;5.13;3.97;;;;;;;;;;5054253;28;20082;-44
2021/07/31 06:57:02;;;;;;;4.13;3.30;;;;;;;;;;5054055;28;20549;-42
2021/07/31 06:59:28;;;;;;;5.55;4.10;;;;;;;;;;5053898;28;20106;-43
2021/07/31 07:01:53;;;;;;;4.35;3.08;;;;;;;;;;5054387;28;20028;-42
2021/07/31 07:04:18;;;;;;;4.15;2.90;;;;;;;;;;5053820;28;20029;-42
2021/07/31 07:06:44;;;;;;;9.23;3.30;;;;;;;;;;5054254;28;20021;-43
2021/07/31 07:09:09;;;;;;;5.82;3.50;;;;;;;;;;5053815;28;20495;-43
2021/07/31 07:11:35;;;;;;;5.38;3.80;;;;;;;;;;5054054;28;20029;-43
2021/07/31 07:14:00;;;;;;;4.97;3.00;;;;;;;;;;5054042;28;20083;-42
2021/07/31 07:16:25;;;;;;;4.63;3.17;;;;;;;;;;5053788;28;20539;-43
2021/07/31 07:18:51;;;;;;;4.28;3.22;;;;;;;;;;5053832;28;20024;-42
2021/07/31 07:21:16;;;;;;;4.82;3.03;;;;;;;;;;5053895;28;20029;-42
2021/07/31 07:23:42;;;;;;;3.92;3.22;;;;;;;;;;5053761;28;20103;-42
2021/07/31 07:26:08;;;;;;;4.20;3.60;;;;;;;;;;5053680;28;20025;-42
2021/07/31 07:28:33;;;;;;;4.78;3.80;;;;;;;;;;5053535;28;20051;-43
2021/07/31 07:30:59;;;;;;;5.25;3.70;;;;;;;;;;5053781;28;20677;-42
2021/07/31 07:33:24;;;;;;;5.95;3.17;;;;;;;;;;5053349;28;20391;-43
2021/07/31 07:35:51;;;;;;;5.32;3.38;;;;;;;;;;5053238;28;20054;-42
2021/07/31 07:38:16;;;;;;;5.82;3.22;;;;;;;;;;5053334;28;20033;-42
2021/07/31 07:40:42;;;;;;;10.88;3.45;;;;;;;;;;5053111;28;20482;-43
2021/07/31 07:43:07;;;;;;;9.18;4.25;;;;;;;;;;5053422;28;20032;-43
2021/07/31 07:45:33;;;;;;;6.07;3.95;;;;;;;;;;5053160;28;20017;-43
2021/07/31 07:47:58;;;;;;;4.72;4.07;;;;;;;;;;5053028;28;20082;-43
2021/07/31 07:50:24;;;;;;;4.57;3.35;;;;;;;;;;5052987;28;20096;-43
2021/07/31 07:52:49;;;;;;;3.65;3.13;;;;;;;;;;5052422;28;20048;-43
2021/07/31 07:55:15;;;;;;;8.00;4.35;;;;;;;;;;5052899;28;20032;-42
2021/07/31 07:57:41;;;;;;;5.70;3.80;;;;;;;;;;5052609;28;20383;-42
2021/07/31 08:00:07;;;;;;;6.93;4.07;;;;;;;;;;5052698;28;20023;-42
2021/07/31 08:02:38;;;;;;;8.32;3.40;;;;;;;;;;5053262;28;20040;-42
2021/07/31 08:05:04;;;;;;;7.57;4.70;;;;;;;;;;5052598;28;20112;-42
2021/07/31 08:07:29;;;;;;;8.30;4.00;;;;;;;;;;5052520;28;20036;-42
2021/07/31 08:09:55;;;;;;;5.15;3.78;;;;;;;;;;5052687;28;20039;-42
2021/07/31 08:12:20;;;;;;;5.15;4.13;;;;;;;;;;5052483;28;20027;-42
2021/07/31 08:14:47;;;;;;;4.35;3.38;;;;;;;;;;5052609;28;20041;-42
2021/07/31 08:17:13;;;;;;;6.25;3.47;;;;;;;;;;5051307;28;20119;-42
2021/07/31 08:19:39;;;;;;;6.40;3.33;;;;;;;;;;5052639;28;20086;-42
2021/07/31 08:22:04;;;;;;;3.15;2.83;;;;;;;;;;5052826;28;20104;-44
2021/07/31 08:24:29;;;;;;;3.33;2.85;;;;;;;;;;5052389;28;20531;-43
2021/07/31 08:26:55;;;;;;;5.93;2.75;;;;;;;;;;5052693;28;20089;-42
2021/07/31 08:29:20;;;;;;;4.32;2.70;;;;;;;;;;5052304;28;20064;-42
2021/07/31 08:31:46;;;;;;;3.08;2.20;;;;;;;;;;5052454;28;20052;-42
2021/07/31 08:34:12;;;;;;;3.20;2.35;;;;;;;;;;5052712;28;20102;-42
2021/07/31 08:36:38;;;;;;;4.40;2.78;;;;;;;;;;5051186;28;20120;-42
2021/07/31 08:39:04;;;;;;;2.20;1.85;;;;;;;;;;5052600;28;20450;-42
2021/07/31 08:41:30;;;;;;;2.42;1.80;;;;;;;;;;5052212;28;20111;-42
2021/07/31 08:43:56;;;;;;;2.10;1.60;;;;;;;;;;5052299;28;20060;-42
2021/07/31 08:46:21;;;;;;;3.08;1.73;;;;;;;;;;5052162;28;20056;-43
2021/07/31 08:48:47;;;;;;;4.78;1.65;;;;;;;;;;5052179;28;20021;-42
2021/07/31 08:51:14;;;;;;;2.75;1.13;;;;;;;;;;5052074;28;20044;-42
2021/07/31 08:53:39;;;;;;;1.63;1.23;;;;;;;;;;5051988;28;20067;-42
2021/07/31 08:56:05;;;;;;;2.10;1.25;;;;;;;;;;5052289;28;20037;-42
2021/07/31 08:58:30;;;;;;;1.65;1.33;;;;;;;;;;5052106;28;20059;-42
2021/07/31 09:00:56;;;;;;;8.30;1.40;;;;;;;;;;5052215;28;20048;-42
2021/07/31 09:03:22;;;;;;;1.70;1.20;;;;;;;;;;5052198;28;20025;-42
2021/07/31 09:05:48;;;;;;;2.42;1.75;;;;;;;;;;5052088;28;20430;-42
2021/07/31 09:08:13;;;;;;;3.88;1.60;;;;;;;;;;5054675;28;20037;-42
2021/07/31 09:10:40;;;;;;;1.92;1.42;;;;;;;;;;5056056;28;20116;-42
2021/07/31 09:13:10;;;;;;;1.92;1.27;;;;;;;;;;5056130;28;20057;-42
2021/07/31 09:15:38;;;;;;;1.98;1.70;;;;;;;;;;5056147;28;20040;-43
2021/07/31 09:18:19;;;;;;;3.42;1.50;;;;;;;;;;5055994;28;20082;-42
2021/07/31 09:20:52;;;;;;;1.35;1.10;;;;;;;;;;5056027;28;20036;-42
2021/07/31 09:23:18;;;;;;;2.55;1.13;;;;;;;;;;5056113;28;20125;-42
2021/07/31 09:25:57;;;;;;;2.25;1.10;;;;;;;;;;5055746;28;20120;-42
2021/07/31 09:28:22;;;;;;;2.00;1.50;;;;;;;;;;5055877;28;20514;-42
2021/07/31 09:30:49;;;;;;;2.22;1.52;;;;;;;;;;5055940;28;20306;-42
2021/07/31 09:33:16;;;;;;;3.05;1.40;;;;;;;;;;5055871;28;20033;-42
2021/07/31 09:35:42;;;;;;;1.77;1.10;;;;;;;;;;5055520;28;20029;-42
2021/07/31 09:38:07;;;;;;;4.05;2.00;;;;;;;;;;5055664;28;20036;-42
2021/07/31 09:40:33;;;;;;;2.65;1.50;;;;;;;;;;5055676;28;20017;-42
2021/07/31 09:43:12;;;;;;;3.30;1.58;;;;;;;;;;5054240;28;20104;-42
2021/07/31 09:45:37;;;;;;;1.60;1.20;;;;;;;;;;5055427;28;20044;-42
2021/07/31 09:48:04;;;;;;;4.30;1.95;;;;;;;;;;5055336;28;20013;-42
2021/07/31 09:50:35;;;;;;;4.03;1.23;;;;;;;;;;5055307;28;20029;-42
2021/07/31 09:53:14;;;;;;;2.00;1.25;;;;;;;;;;5055047;28;20096;-42
2021/07/31 09:55:43;;;;;;;1.75;1.45;;;;;;;;;;5055298;28;20033;-42
2021/07/31 09:58:12;;;;;;;2.20;1.75;;;;;;;;;;5055245;28;20589;-42
2021/07/31 10:00:43;;;;;;;1.63;1.38;;;;;;;;;;5055326;28;20438;-43
2021/07/31 10:03:10;;;;;;;3.92;2.08;;;;;;;;;;5055132;28;20048;-42
2021/07/31 10:05:36;;;;;;;2.75;1.48;;;;;;;;;;5055372;28;20017;-42
2021/07/31 10:08:02;;;;;;;1.50;1.35;;;;;;;;;;5055343;28;20044;-42
2021/07/31 10:10:27;;;;;;;1.42;1.33;;;;;;;;;;5054905;28;20017;-42
2021/07/31 10:12:53;;;;;;;2.25;1.40;;;;;;;;;;5055241;28;20464;-42
2021/07/31 10:15:18;;;;;;;4.05;1.63;;;;;;;;;;5054959;28;20357;-44
2021/07/31 10:17:44;;;;;;;2.95;1.65;;;;;;;;;;5055242;28;20061;-43
2021/07/31 10:20:09;;;;;;;2.55;2.28;;;;;;;;;;5054215;28;20440;-42
2021/07/31 10:22:45;;;;;;;2.38;1.85;;;;;;;;;;5054847;28;20036;-42
2021/07/31 10:25:11;;;;;;;1.83;1.42;;;;;;;;;;5054736;28;20056;-44
2021/07/31 10:27:36;;;;;;;2.35;1.80;;;;;;;;;;5054610;28;20060;-42
2021/07/31 10:30:03;;;;;;;3.00;1.92;;;;;;;;;;5054630;28;20052;-42
2021/07/31 10:32:32;;;;;;;1.65;1.55;;;;;;;;;;5054826;28;20028;-42
2021/07/31 10:35:05;;;;;;;4.75;1.77;;;;;;;;;;5054596;28;20029;-42
2021/07/31 10:39:56;;;;;;;2.92;1.60;;;;;;;;;;5054420;28;20021;-42
2021/07/31 10:42:21;;;;;;;1.85;1.40;;;;;;;;;;5054652;28;20033;-42
2021/07/31 10:45:05;;;;;;;3.20;1.65;;;;;;;;;;5054300;28;20614;-42
2021/07/31 10:47:34;;;;;;;2.95;1.52;;;;;;;;;;5054233;28;20476;-42
2021/07/31 10:49:59;;;;;;;4.13;1.80;;;;;;;;;;5054214;28;20071;-42
2021/07/31 10:52:43;;;;;;;2.10;1.60;;;;;;;;;;5054002;28;20056;-42
2021/07/31 10:55:09;;;;;;;2.45;1.77;;;;;;;;;;5054396;28;20036;-42
2021/07/31 10:57:53;;;;;;;2.20;1.50;;;;;;;;;;5054370;28;20021;-43
2021/07/31 11:00:25;;;;;;;2.67;1.73;;;;;;;;;;5054136;28;20051;-42
2021/07/31 11:02:51;;;;;;;5.50;1.70;;;;;;;;;;5053950;28;20396;-42
2021/07/31 11:05:16;;;;;;;1.42;1.33;;;;;;;;;;5053641;28;20075;-42
2021/07/31 11:07:57;;;;;;;2.58;1.30;;;;;;;;;;5054208;28;20061;-42
2021/07/31 11:10:32;;;;;;;1.83;1.40;;;;;;;;;;5053612;28;20032;-42
2021/07/31 11:12:58;;;;;;;3.13;2.00;;;;;;;;;;5052626;28;20096;-42
2021/07/31 11:15:24;;;;;;;2.00;1.60;;;;;;;;;;5053660;28;20075;-42
2021/07/31 11:17:56;;;;;;;1.90;1.35;;;;;;;;;;5054044;28;20032;-43
2021/07/31 11:20:29;;;;;;;5.83;1.57;;;;;;;;;;5053574;28;20033;-44
2021/07/31 11:22:54;;;;;;;;;;;;;;;;;;5054418;28;20276;-42
2021/07/31 11:25:20;;;;;;;4.63;1.50;;;;;;;;;;5052235;28;20270;-42
2021/07/31 11:27:56;;;;;;;2.15;1.40;;;;;;;;;;5053565;28;20029;-43
2021/07/31 11:30:21;;;;;;;4.43;1.95;;;;;;;;;;5052728;28;20017;-42
2021/07/31 11:32:47;;;;;;;3.13;1.52;;;;;;;;;;5053032;28;20128;-42
2021/07/31 11:35:25;;;;;;;2.28;1.65;;;;;;;;;;5053378;28;20021;-42
2021/07/31 11:37:51;;;;;;;2.67;1.73;;;;;;;;;;5053461;28;20555;-41
2021/07/31 11:40:16;;;;;;;3.05;1.90;;;;;;;;;;5053412;28;20100;-42
2021/07/31 11:42:42;;;;;;;1.50;1.40;;;;;;;;;;5053263;28;20383;-42
2021/07/31 11:45:08;;;;;;;2.22;1.60;;;;;;;;;;5053257;28;20025;-42
2021/07/31 11:47:33;;;;;;;3.28;1.95;;;;;;;;;;5053409;28;20032;-42
2021/07/31 11:50:06;;;;;;;3.65;1.80;;;;;;;;;;5053163;28;20518;-42
2021/07/31 11:52:40;;;;;;;3.35;2.17;;;;;;;;;;5069666;28;20379;-41
2021/07/31 11:55:08;;;;;;;4.35;2.03;;;;;;;;;;5070031;28;20564;-41
2021/07/31 11:57:33;;;;;;;1.88;1.73;;;;;;;;;;5069660;28;20016;-41
2021/07/31 11:59:59;;;;;;;3.88;1.95;;;;;;;;;;5069664;28;20116;-41
2021/07/31 12:02:34;;;;;;;3.30;2.08;;;;;;;;;;5069562;28;20103;-41
2021/07/31 12:05:00;;;;;;;3.80;2.03;;;;;;;;;;5069617;28;20523;-43
2021/07/31 12:07:25;;;;;;;3.03;2.03;;;;;;;;;;5069504;28;20032;-41
2021/07/31 12:10:01;;;;;;;2.95;2.35;;;;;;;;;;5069699;28;20033;-41
2021/07/31 12:12:30;;;;;;;2.33;1.80;;;;;;;;;;5069248;28;20441;-41
2021/07/31 12:15:14;;;;;;;2.33;1.73;;;;;;;;;;5069745;28;20027;-42
2021/07/31 12:17:45;;;;;;;3.88;2.13;;;;;;;;;;5069268;28;20086;-42
2021/07/31 12:20:10;;;;;;;4.85;2.13;;;;;;;;;;5069565;28;20086;-41
2021/07/31 12:22:49;;;;;;;3.10;2.47;;;;;;;;;;5069407;28;20410;-41
2021/07/31 12:25:16;;;;;;;1.95;1.48;;;;;;;;;;5069531;28;20422;-41
2021/07/31 12:28:09;;;;;;;3.72;2.33;;;;;;;;;;5069156;28;20013;-41
2021/07/31 12:30:35;;;;;;;2.92;1.90;;;;;;;;;;5067996;28;20067;-41
2021/07/31 12:33:06;;;;;;;3.40;1.83;;;;;;;;;;5069134;28;20024;-41
2021/07/31 12:35:39;;;;;;;2.75;1.90;;;;;;;;;;5068886;28;20021;-41
2021/07/31 12:38:06;;;;;;;4.63;2.10;;;;;;;;;;5069159;28;20025;-42
2021/07/31 12:40:31;;;;;;;2.25;1.90;;;;;;;;;;5068806;28;20092;-41
2021/07/31 12:42:57;;;;;;;2.03;1.63;;;;;;;;;;5068966;28;20045;-41
2021/07/31 12:45:24;;;;;;;2.50;2.20;;;;;;;;;;5068980;28;20088;-42
2021/07/31 12:47:50;;;;;;;2.90;1.95;;;;;;;;;;5069049;28;20029;-42
2021/07/31 12:50:15;;;;;;;3.78;2.50;;;;;;;;;;5067139;28;20090;-42
2021/07/31 12:52:41;;;;;;;3.17;1.98;;;;;;;;;;5068784;28;20041;-41
2021/07/31 12:55:08;;;;;;;2.97;2.53;;;;;;;;;;5068661;28;20033;-42
2021/07/31 12:57:33;;;;;;;4.85;2.67;;;;;;;;;;5068459;28;20040;-41
2021/07/31 12:59:58;;;;;;;2.95;2.20;;;;;;;;;;5068700;28;20383;-41
2021/07/31 13:02:24;;;;;;;3.60;2.33;;;;;;;;;;5064184;28;20472;-41
2021/07/31 13:04:49;;;;;;;3.78;2.13;;;;;;;;;;5055148;28;20421;-41
2021/07/31 13:07:15;;;;;;;3.58;2.50;;;;;;;;;;5055124;28;20028;-41
2021/07/31 13:09:41;;;;;;;4.28;2.70;;;;;;;;;;5054978;28;20031;-42
2021/07/31 13:12:07;;;;;;;4.13;2.08;;;;;;;;;;5055202;28;20505;-41
2021/07/31 13:14:33;;;;;;;2.42;2.20;;;;;;;;;;5054920;28;20021;-42
2021/07/31 13:16:58;;;;;;;3.25;2.90;;;;;;;;;;5055259;28;20033;-41
2021/07/31 13:19:23;;;;;;;2.03;1.77;;;;;;;;;;5054814;28;20021;-41
2021/07/31 13:21:49;;;;;;;3.03;2.53;;;;;;;;;;5054904;28;20606;-41
2021/07/31 13:24:14;;;;;;;3.15;2.58;;;;;;;;;;5054895;28;20167;-40
2021/07/31 13:26:40;;;;;;;5.05;2.22;;;;;;;;;;5054698;28;20369;-41
2021/07/31 13:29:05;;;;;;;4.10;2.47;;;;;;;;;;5054666;28;20063;-41
2021/07/31 13:31:30;;;;;;;3.90;2.40;;;;;;;;;;5054836;28;20086;-41
2021/07/31 13:33:56;;;;;;;2.22;1.95;;;;;;;;;;5054648;28;20456;-41
2021/07/31 13:36:21;;;;;;;4.28;2.50;;;;;;;;;;5054472;28;20051;-41
2021/07/31 13:38:48;;;;;;;3.22;2.47;;;;;;;;;;5054648;28;20105;-43
2021/07/31 13:41:14;;;;;;;4.60;3.90;;;;;;;;;;5054407;28;20025;-41
2021/07/31 13:43:40;;;;;;;5.25;3.17;;;;;;;;;;5054471;28;20139;-42
2021/07/31 13:46:07;;;;;;;3.33;2.25;;;;;;;;;;5054498;28;20025;-41
2021/07/31 13:48:32;;;;;;;3.58;2.80;;;;;;;;;;5054206;28;20021;-42
2021/07/31 13:50:57;;;;;;;4.70;3.35;;;;;;;;;;5054372;28;20048;-41
2021/07/31 13:53:23;;;;;;;3.08;2.60;;;;;;;;;;5054149;28;20036;-41
2021/07/31 13:55:48;;;;;;;3.17;2.65;;;;;;;;;;5054561;28;20029;-41
2021/07/31 13:58:13;;;;;;;3.80;2.50;;;;;;;;;;5054284;28;20021;-41
2021/07/31 14:00:41;;;;;;;3.33;2.35;;;;;;;;;;5054284;28;20032;-42
2021/07/31 14:03:06;;;;;;;6.18;2.83;;;;;;;;;;5054374;28;20024;-41
2021/07/31 14:05:32;;;;;;;5.68;3.17;;;;;;;;;;5053961;28;20037;-41
2021/07/31 14:07:57;;;;;;;3.78;2.88;;;;;;;;;;5054388;28;20020;-41
2021/07/31 14:10:23;;;;;;;4.32;2.85;;;;;;;;;;5053769;28;20021;-41
2021/07/31 14:12:48;;;;;;;8.00;3.30;;;;;;;;;;5053888;28;20013;-41
2021/07/31 14:15:13;;;;;;;4.75;3.22;;;;;;;;;;5053213;28;20025;-41
2021/07/31 14:17:39;;;;;;;4.95;2.90;;;;;;;;;;5053739;28;20434;-41
2021/07/31 14:20:04;;;;;;;5.70;3.25;;;;;;;;;;5054081;28;20017;-41
2021/07/31 14:22:30;;;;;;;4.57;3.45;;;;;;;;;;5053886;28;20651;-41
2021/07/31 14:24:55;;;;;;;5.13;3.22;;;;;;;;;;5053682;28;20186;-42
2021/07/31 14:27:21;;;;;;;4.85;4.00;;;;;;;;;;5053843;28;20047;-41
2021/07/31 14:29:46;;;;;;;9.50;2.88;;;;;;;;;;5053854;28;20062;-41
2021/07/31 14:32:12;;;;;;;6.22;2.80;;;;;;;;;;5053765;28;20021;-41
2021/07/31 14:34:37;;;;;;;4.85;3.35;;;;;;;;;;5053434;28;20102;-42
2021/07/31 14:37:02;;;;;;;3.60;2.85;;;;;;;;;;5053426;28;20027;-41
2021/07/31 14:39:31;;;;;;;6.38;3.55;;;;;;;;;;5053352;28;20035;-41
2021/07/31 14:41:56;;;;;;;12.82;3.25;;;;;;;;;;5053433;28;20017;-41
2021/07/31 14:44:21;;;;;;;8.52;3.08;;;;;;;;;;5052038;28;20025;-41
2021/07/31 14:46:47;;;;;;;5.28;2.88;;;;;;;;;;5053352;28;20422;-41